sensor_id;sensor_type;location;lat;lon;timestamp;P1;P2;P0
46302;PMS7003;32029;51.358;5.628;2023-05-07T00:00:56;5.67;4.00;3.00
46302;PMS7003;32029;51.358;5.628;2023-05-07T00:03:25;3.00;3.00;2.33
46302;PMS7003;32029;51.358;5.628;2023-05-07T00:05:52;4.33;2.67;2.33
46302;PMS7003;32029;51.358;5.628;2023-05-07T00:08:19;5.67;4.33;3.00
46302;PMS7003;32029;51.358;5.628;2023-05-07T00:10:46;5.33;4.00;2.67
46302;PMS7003;32029;51.358;5.628;2023-05-07T00:13:13;8.67;3.00;3.00
46302;PMS7003;32029;51.358;5.628;2023-05-07T00:15:40;3.33;2.00;2.00
46302;PMS7003;32029;51.358;5.628;2023-05-07T00:18:07;5.00;3.67;3.00
46302;PMS7003;32029;51.358;5.628;2023-05-07T00:20:33;5.00;4.00;2.67
46302;PMS7003;32029;51.358;5.628;2023-05-07T00:23:00;3.00;3.00;2.33
46302;PMS7003;32029;51.358;5.628;2023-05-07T00:25:27;3.33;2.67;2.00
46302;PMS7003;32029;51.358;5.628;2023-05-07T00:27:53;3.67;2.67;2.00
46302;PMS7003;32029;51.358;5.628;2023-05-07T00:30:20;4.33;3.33;2.33
46302;PMS7003;32029;51.358;5.628;2023-05-07T00:32:47;3.00;3.00;2.00
46302;PMS7003;32029;51.358;5.628;2023-05-07T00:35:15;8.00;4.33;3.00
46302;PMS7003;32029;51.358;5.628;2023-05-07T00:37:42;4.33;4.00;3.00
46302;PMS7003;32029;51.358;5.628;2023-05-07T00:40:08;4.00;4.00;3.00
46302;PMS7003;32029;51.358;5.628;2023-05-07T00:42:35;8.33;5.00;4.00
46302;PMS7003;32029;51.358;5.628;2023-05-07T00:45:03;5.33;5.00;3.67
46302;PMS7003;32029;51.358;5.628;2023-05-07T00:47:30;9.33;6.00;4.00
46302;PMS7003;32029;51.358;5.628;2023-05-07T00:49:57;9.00;7.00;3.67
46302;PMS7003;32029;51.358;5.628;2023-05-07T00:52:25;8.33;4.33;4.00
46302;PMS7003;32029;51.358;5.628;2023-05-07T00:54:52;6.00;5.00;4.00
46302;PMS7003;32029;51.358;5.628;2023-05-07T00:57:19;10.33;7.00;5.00
46302;PMS7003;32029;51.358;5.628;2023-05-07T00:59:48;4.60;4.00;3.80
46302;PMS7003;32029;51.358;5.628;2023-05-07T01:02:18;5.80;4.00;3.00
46302;PMS7003;32029;51.358;5.628;2023-05-07T01:04:45;5.33;4.00;4.00
46302;PMS7003;32029;51.358;5.628;2023-05-07T01:07:11;4.67;4.67;4.00
46302;PMS7003;32029;51.358;5.628;2023-05-07T01:09:39;6.67;5.00;4.67
46302;PMS7003;32029;51.358;5.628;2023-05-07T01:12:06;6.00;4.00;3.00
46302;PMS7003;32029;51.358;5.628;2023-05-07T01:14:34;6.33;5.00;3.67
46302;PMS7003;32029;51.358;5.628;2023-05-07T01:17:02;7.00;5.00;3.80
46302;PMS7003;32029;51.358;5.628;2023-05-07T01:19:29;4.00;4.00;3.00
46302;PMS7003;32029;51.358;5.628;2023-05-07T01:21:58;5.00;3.67;2.67
46302;PMS7003;32029;51.358;5.628;2023-05-07T01:24:31;5.67;3.67;3.00
46302;PMS7003;32029;51.358;5.628;2023-05-07T01:26:58;4.00;4.00;3.00
46302;PMS7003;32029;51.358;5.628;2023-05-07T01:29:25;7.00;6.00;4.67
46302;PMS7003;32029;51.358;5.628;2023-05-07T01:31:52;5.00;5.00;4.00
46302;PMS7003;32029;51.358;5.628;2023-05-07T01:34:19;5.67;4.00;4.00
46302;PMS7003;32029;51.358;5.628;2023-05-07T01:36:48;8.33;4.67;3.67
46302;PMS7003;32029;51.358;5.628;2023-05-07T01:39:15;6.33;4.33;4.00
46302;PMS7003;32029;51.358;5.628;2023-05-07T01:41:43;7.33;6.00;4.00
46302;PMS7003;32029;51.358;5.628;2023-05-07T01:44:10;10.67;5.67;4.33
46302;PMS7003;32029;51.358;5.628;2023-05-07T01:46:39;6.00;5.67;4.67
46302;PMS7003;32029;51.358;5.628;2023-05-07T01:49:06;7.67;5.67;4.00
46302;PMS7003;32029;51.358;5.628;2023-05-07T01:51:33;11.00;9.33;6.00
46302;PMS7003;32029;51.358;5.628;2023-05-07T01:54:00;8.00;6.00;5.00
46302;PMS7003;32029;51.358;5.628;2023-05-07T01:56:27;7.33;5.00;4.00
46302;PMS7003;32029;51.358;5.628;2023-05-07T01:58:54;6.67;5.67;4.33
46302;PMS7003;32029;51.358;5.628;2023-05-07T02:01:20;8.67;6.33;5.00
46302;PMS7003;32029;51.358;5.628;2023-05-07T02:03:47;7.33;5.00;4.00
46302;PMS7003;32029;51.358;5.628;2023-05-07T02:06:14;6.67;5.67;4.00
46302;PMS7003;32029;51.358;5.628;2023-05-07T02:08:40;6.67;5.33;4.67
46302;PMS7003;32029;51.358;5.628;2023-05-07T02:11:07;4.33;3.00;2.00
46302;PMS7003;32029;51.358;5.628;2023-05-07T02:13:34;10.67;7.00;6.00
46302;PMS7003;32029;51.358;5.628;2023-05-07T02:16:02;9.00;6.80;6.00
46302;PMS7003;32029;51.358;5.628;2023-05-07T02:18:29;8.33;6.00;5.00
46302;PMS7003;32029;51.358;5.628;2023-05-07T02:20:57;13.20;7.60;5.80
46302;PMS7003;32029;51.358;5.628;2023-05-07T02:23:25;8.40;6.60;5.60
46302;PMS7003;32029;51.358;5.628;2023-05-07T02:25:51;7.33;6.00;5.00
46302;PMS7003;32029;51.358;5.628;2023-05-07T02:28:18;9.67;6.00;5.67
46302;PMS7003;32029;51.358;5.628;2023-05-07T02:30:46;7.20;6.60;5.00
46302;PMS7003;32029;51.358;5.628;2023-05-07T02:33:12;8.00;6.67;5.00
46302;PMS7003;32029;51.358;5.628;2023-05-07T02:35:40;7.00;5.00;4.00
46302;PMS7003;32029;51.358;5.628;2023-05-07T02:38:06;9.67;7.67;6.00
46302;PMS7003;32029;51.358;5.628;2023-05-07T02:40:33;9.33;7.00;6.00
46302;PMS7003;32029;51.358;5.628;2023-05-07T02:43:01;7.00;6.33;4.67
46302;PMS7003;32029;51.358;5.628;2023-05-07T02:45:27;5.33;5.00;4.33
46302;PMS7003;32029;51.358;5.628;2023-05-07T02:47:54;7.67;6.00;4.00
46302;PMS7003;32029;51.358;5.628;2023-05-07T02:50:21;9.00;8.67;5.33
46302;PMS7003;32029;51.358;5.628;2023-05-07T02:52:48;11.67;8.00;6.00
46302;PMS7003;32029;51.358;5.628;2023-05-07T02:55:14;8.00;7.00;5.67
46302;PMS7003;32029;51.358;5.628;2023-05-07T02:57:42;7.20;7.00;5.20
46302;PMS7003;32029;51.358;5.628;2023-05-07T03:00:11;5.80;4.60;3.00
46302;PMS7003;32029;51.358;5.628;2023-05-07T03:02:40;6.20;5.00;4.00
46302;PMS7003;32029;51.358;5.628;2023-05-07T03:05:08;9.40;6.40;4.80
46302;PMS7003;32029;51.358;5.628;2023-05-07T03:07:35;9.00;6.67;5.00
46302;PMS7003;32029;51.358;5.628;2023-05-07T03:10:03;10.00;7.00;5.00
46302;PMS7003;32029;51.358;5.628;2023-05-07T03:12:31;8.00;7.00;5.20
46302;PMS7003;32029;51.358;5.628;2023-05-07T03:14:59;7.00;6.00;5.00
46302;PMS7003;32029;51.358;5.628;2023-05-07T03:17:25;8.00;6.00;4.00
46302;PMS7003;32029;51.358;5.628;2023-05-07T03:19:53;8.40;7.20;5.20
46302;PMS7003;32029;51.358;5.628;2023-05-07T03:22:21;14.67;8.00;5.00
46302;PMS7003;32029;51.358;5.628;2023-05-07T03:24:49;9.67;6.67;5.00
46302;PMS7003;32029;51.358;5.628;2023-05-07T03:27:17;7.20;4.80;4.00
46302;PMS7003;32029;51.358;5.628;2023-05-07T03:29:43;11.33;7.00;5.00
46302;PMS7003;32029;51.358;5.628;2023-05-07T03:32:11;9.60;8.00;6.40
46302;PMS7003;32029;51.358;5.628;2023-05-07T03:34:38;11.00;8.00;6.00
46302;PMS7003;32029;51.358;5.628;2023-05-07T03:37:05;11.00;8.33;6.67
46302;PMS7003;32029;51.358;5.628;2023-05-07T03:39:32;7.80;5.00;4.20
46302;PMS7003;32029;51.358;5.628;2023-05-07T03:42:00;12.40;6.80;5.40
46302;PMS7003;32029;51.358;5.628;2023-05-07T03:44:27;9.00;8.00;6.00
46302;PMS7003;32029;51.358;5.628;2023-05-07T03:46:54;10.67;9.00;6.00
46302;PMS7003;32029;51.358;5.628;2023-05-07T03:49:21;6.67;5.00;3.67
46302;PMS7003;32029;51.358;5.628;2023-05-07T03:51:49;9.60;8.00;7.00
46302;PMS7003;32029;51.358;5.628;2023-05-07T03:54:16;9.67;6.67;6.00
46302;PMS7003;32029;51.358;5.628;2023-05-07T03:56:42;5.67;5.67;4.67
46302;PMS7003;32029;51.358;5.628;2023-05-07T03:59:10;10.40;7.00;5.40
46302;PMS7003;32029;51.358;5.628;2023-05-07T04:01:39;9.00;7.40;6.00
46302;PMS7003;32029;51.358;5.628;2023-05-07T04:04:07;9.40;6.00;5.00
46302;PMS7003;32029;51.358;5.628;2023-05-07T04:06:35;15.00;8.80;6.00
46302;PMS7003;32029;51.358;5.628;2023-05-07T04:09:03;7.20;5.60;4.80
46302;PMS7003;32029;51.358;5.628;2023-05-07T04:11:30;8.60;7.80;5.20
46302;PMS7003;32029;51.358;5.628;2023-05-07T04:13:58;8.00;7.00;5.60
46302;PMS7003;32029;51.358;5.628;2023-05-07T04:16:25;11.00;10.00;6.33
46302;PMS7003;32029;51.358;5.628;2023-05-07T04:18:53;6.40;4.20;3.80
46302;PMS7003;32029;51.358;5.628;2023-05-07T04:21:21;5.00;5.00;3.40
46302;PMS7003;32029;51.358;5.628;2023-05-07T04:23:48;10.33;5.00;4.00
46302;PMS7003;32029;51.358;5.628;2023-05-07T04:26:15;8.33;8.00;6.00
46302;PMS7003;32029;51.358;5.628;2023-05-07T04:28:42;9.33;7.00;4.67
46302;PMS7003;32029;51.358;5.628;2023-05-07T04:31:10;8.40;7.40;5.40
46302;PMS7003;32029;51.358;5.628;2023-05-07T04:33:37;7.60;7.60;6.80
46302;PMS7003;32029;51.358;5.628;2023-05-07T04:36:05;7.60;7.00;5.00
46302;PMS7003;32029;51.358;5.628;2023-05-07T04:38:32;7.33;6.33;5.33
46302;PMS7003;32029;51.358;5.628;2023-05-07T04:41:05;6.67;6.00;5.00
46302;PMS7003;32029;51.358;5.628;2023-05-07T04:43:32;7.00;7.00;5.00
46302;PMS7003;32029;51.358;5.628;2023-05-07T04:45:59;8.00;7.00;5.00
46302;PMS7003;32029;51.358;5.628;2023-05-07T04:48:26;8.00;6.67;4.67
46302;PMS7003;32029;51.358;5.628;2023-05-07T04:50:54;8.00;5.60;4.00
46302;PMS7003;32029;51.358;5.628;2023-05-07T04:53:22;8.00;6.20;4.80
46302;PMS7003;32029;51.358;5.628;2023-05-07T04:55:49;7.33;6.00;4.67
46302;PMS7003;32029;51.358;5.628;2023-05-07T04:58:22;11.40;8.00;6.40
46302;PMS7003;32029;51.358;5.628;2023-05-07T05:00:50;8.00;8.00;6.33
46302;PMS7003;32029;51.358;5.628;2023-05-07T05:03:17;8.20;7.00;5.60
46302;PMS7003;32029;51.358;5.628;2023-05-07T05:05:44;11.00;8.00;6.00
46302;PMS7003;32029;51.358;5.628;2023-05-07T05:08:12;8.20;8.00;5.80
46302;PMS7003;32029;51.358;5.628;2023-05-07T05:10:39;6.67;6.67;4.67
46302;PMS7003;32029;51.358;5.628;2023-05-07T05:13:07;7.00;5.00;4.00
46302;PMS7003;32029;51.358;5.628;2023-05-07T05:15:35;15.20;8.40;5.20
46302;PMS7003;32029;51.358;5.628;2023-05-07T05:18:03;5.20;3.20;3.00
46302;PMS7003;32029;51.358;5.628;2023-05-07T05:20:30;7.00;7.00;6.00
46302;PMS7003;32029;51.358;5.628;2023-05-07T05:22:57;12.80;7.00;5.40
46302;PMS7003;32029;51.358;5.628;2023-05-07T05:25:24;11.33;9.33;7.00
46302;PMS7003;32029;51.358;5.628;2023-05-07T05:27:51;6.00;5.00;4.33
46302;PMS7003;32029;51.358;5.628;2023-05-07T05:30:19;8.20;7.20;5.40
46302;PMS7003;32029;51.358;5.628;2023-05-07T05:32:46;11.00;8.33;6.33
46302;PMS7003;32029;51.358;5.628;2023-05-07T05:35:13;10.40;7.80;6.80
46302;PMS7003;32029;51.358;5.628;2023-05-07T05:37:40;10.33;10.33;6.33
46302;PMS7003;32029;51.358;5.628;2023-05-07T05:40:07;11.33;10.33;8.00
46302;PMS7003;32029;51.358;5.628;2023-05-07T05:42:34;11.67;8.00;6.00
46302;PMS7003;32029;51.358;5.628;2023-05-07T05:45:01;11.67;9.33;7.00
46302;PMS7003;32029;51.358;5.628;2023-05-07T05:47:29;12.40;11.20;6.80
46302;PMS7003;32029;51.358;5.628;2023-05-07T05:49:57;10.40;9.80;7.80
46302;PMS7003;32029;51.358;5.628;2023-05-07T05:52:24;10.33;9.00;7.00
46302;PMS7003;32029;51.358;5.628;2023-05-07T05:54:51;5.00;3.00;2.67
46302;PMS7003;32029;51.358;5.628;2023-05-07T05:57:19;10.00;9.00;7.20
46302;PMS7003;32029;51.358;5.628;2023-05-07T05:59:46;6.00;5.00;4.00
46302;PMS7003;32029;51.358;5.628;2023-05-07T06:02:14;13.40;8.80;6.20
46302;PMS7003;32029;51.358;5.628;2023-05-07T06:04:42;10.80;8.80;6.40
46302;PMS7003;32029;51.358;5.628;2023-05-07T06:07:10;8.00;6.80;5.80
46302;PMS7003;32029;51.358;5.628;2023-05-07T06:09:38;10.60;8.00;5.80
46302;PMS7003;32029;51.358;5.628;2023-05-07T06:12:06;10.20;8.80;7.00
46302;PMS7003;32029;51.358;5.628;2023-05-07T06:14:33;7.67;4.33;4.00
46302;PMS7003;32029;51.358;5.628;2023-05-07T06:17:00;12.00;7.00;5.00
46302;PMS7003;32029;51.358;5.628;2023-05-07T06:19:27;9.60;8.80;7.00
46302;PMS7003;32029;51.358;5.628;2023-05-07T06:21:54;5.33;4.00;3.33
46302;PMS7003;32029;51.358;5.628;2023-05-07T06:24:24;9.60;6.80;5.00
46302;PMS7003;32029;51.358;5.628;2023-05-07T06:26:50;9.33;7.00;5.33
46302;PMS7003;32029;51.358;5.628;2023-05-07T06:29:17;10.33;5.67;4.33
46302;PMS7003;32029;51.358;5.628;2023-05-07T06:31:45;7.60;6.60;5.60
46302;PMS7003;32029;51.358;5.628;2023-05-07T06:34:12;7.00;5.67;4.33
46302;PMS7003;32029;51.358;5.628;2023-05-07T06:36:41;7.67;6.67;5.00
46302;PMS7003;32029;51.358;5.628;2023-05-07T06:39:09;8.80;6.80;5.20
46302;PMS7003;32029;51.358;5.628;2023-05-07T06:41:35;6.67;4.33;3.67
46302;PMS7003;32029;51.358;5.628;2023-05-07T06:44:02;9.00;7.00;6.00
46302;PMS7003;32029;51.358;5.628;2023-05-07T06:46:30;6.40;6.20;4.80
46302;PMS7003;32029;51.358;5.628;2023-05-07T06:48:58;5.60;4.40;3.00
46302;PMS7003;32029;51.358;5.628;2023-05-07T06:51:26;9.60;5.80;5.00
46302;PMS7003;32029;51.358;5.628;2023-05-07T06:53:54;9.60;7.80;6.20
46302;PMS7003;32029;51.358;5.628;2023-05-07T06:56:20;7.33;6.00;5.00
46302;PMS7003;32029;51.358;5.628;2023-05-07T06:58:50;8.00;4.80;4.60
46302;PMS7003;32029;51.358;5.628;2023-05-07T07:01:16;7.33;5.00;4.00
46302;PMS7003;32029;51.358;5.628;2023-05-07T07:03:44;2.40;2.40;2.00
46302;PMS7003;32029;51.358;5.628;2023-05-07T07:06:11;8.00;6.33;4.00
46302;PMS7003;32029;51.358;5.628;2023-05-07T07:08:39;7.00;5.80;5.00
46302;PMS7003;32029;51.358;5.628;2023-05-07T07:11:07;6.20;6.20;4.80
46302;PMS7003;32029;51.358;5.628;2023-05-07T07:13:35;9.20;8.20;7.20
46302;PMS7003;32029;51.358;5.628;2023-05-07T07:16:03;9.00;6.40;5.00
46302;PMS7003;32029;51.358;5.628;2023-05-07T07:18:31;10.00;5.00;4.00
46302;PMS7003;32029;51.358;5.628;2023-05-07T07:20:59;5.00;5.00;4.40
46302;PMS7003;32029;51.358;5.628;2023-05-07T07:23:27;8.80;6.00;4.60
46302;PMS7003;32029;51.358;5.628;2023-05-07T07:25:54;8.67;6.67;6.00
46302;PMS7003;32029;51.358;5.628;2023-05-07T07:28:21;9.20;7.00;5.40
46302;PMS7003;32029;51.358;5.628;2023-05-07T07:30:48;13.00;8.00;7.00
46302;PMS7003;32029;51.358;5.628;2023-05-07T07:33:17;8.20;7.00;5.40
46302;PMS7003;32029;51.358;5.628;2023-05-07T07:35:43;5.00;3.00;1.33
46302;PMS7003;32029;51.358;5.628;2023-05-07T07:38:11;12.60;9.00;6.60
46302;PMS7003;32029;51.358;5.628;2023-05-07T07:40:39;6.80;4.40;3.60
46302;PMS7003;32029;51.358;5.628;2023-05-07T07:43:07;8.20;6.00;4.60
46302;PMS7003;32029;51.358;5.628;2023-05-07T07:45:35;13.20;7.60;6.00
46302;PMS7003;32029;51.358;5.628;2023-05-07T07:48:02;8.80;5.60;3.40
46302;PMS7003;32029;51.358;5.628;2023-05-07T07:50:30;7.20;7.00;5.60
46302;PMS7003;32029;51.358;5.628;2023-05-07T07:52:58;4.80;4.00;3.00
46302;PMS7003;32029;51.358;5.628;2023-05-07T07:55:26;7.40;7.40;6.40
46302;PMS7003;32029;51.358;5.628;2023-05-07T07:57:54;7.80;7.40;6.00
46302;PMS7003;32029;51.358;5.628;2023-05-07T08:00:22;7.60;5.00;3.80
46302;PMS7003;32029;51.358;5.628;2023-05-07T08:02:50;7.60;5.20;4.40
46302;PMS7003;32029;51.358;5.628;2023-05-07T08:05:16;7.50;6.50;4.00
46302;PMS7003;32029;51.358;5.628;2023-05-07T08:07:44;9.00;6.00;5.40
46302;PMS7003;32029;51.358;5.628;2023-05-07T08:10:10;9.00;6.00;5.00
46302;PMS7003;32029;51.358;5.628;2023-05-07T08:12:37;7.67;4.67;4.00
46302;PMS7003;32029;51.358;5.628;2023-05-07T08:15:04;6.33;4.00;3.00
46302;PMS7003;32029;51.358;5.628;2023-05-07T08:17:32;3.80;2.80;2.40
46302;PMS7003;32029;51.358;5.628;2023-05-07T08:19:59;4.00;3.33;3.00
46302;PMS7003;32029;51.358;5.628;2023-05-07T08:22:25;6.33;5.67;4.67
46302;PMS7003;32029;51.358;5.628;2023-05-07T08:24:53;5.40;4.20;3.00
46302;PMS7003;32029;51.358;5.628;2023-05-07T08:27:20;4.67;4.33;2.67
46302;PMS7003;32029;51.358;5.628;2023-05-07T08:29:47;9.00;4.67;2.67
46302;PMS7003;32029;51.358;5.628;2023-05-07T08:32:15;3.80;2.80;2.20
46302;PMS7003;32029;51.358;5.628;2023-05-07T08:34:43;2.60;2.60;2.00
46302;PMS7003;32029;51.358;5.628;2023-05-07T08:37:09;6.00;4.00;3.00
46302;PMS7003;32029;51.358;5.628;2023-05-07T08:39:37;4.80;4.00;3.60
46302;PMS7003;32029;51.358;5.628;2023-05-07T08:42:04;5.67;4.00;3.33
46302;PMS7003;32029;51.358;5.628;2023-05-07T08:44:34;7.40;5.60;4.00
46302;PMS7003;32029;51.358;5.628;2023-05-07T08:47:02;8.80;4.80;4.00
46302;PMS7003;32029;51.358;5.628;2023-05-07T08:49:33;6.00;4.00;3.00
46302;PMS7003;32029;51.358;5.628;2023-05-07T08:52:02;6.00;5.60;3.40
46302;PMS7003;32029;51.358;5.628;2023-05-07T08:54:30;5.00;4.00;2.60
46302;PMS7003;32029;51.358;5.628;2023-05-07T08:56:58;4.80;3.80;3.00
46302;PMS7003;32029;51.358;5.628;2023-05-07T08:59:25;6.67;5.00;4.00
46302;PMS7003;32029;51.358;5.628;2023-05-07T09:01:53;6.20;5.20;3.80
46302;PMS7003;32029;51.358;5.628;2023-05-07T09:04:21;5.40;4.80;3.80
46302;PMS7003;32029;51.358;5.628;2023-05-07T09:06:49;6.00;5.20;3.80
46302;PMS7003;32029;51.358;5.628;2023-05-07T09:09:18;5.40;5.20;3.80
46302;PMS7003;32029;51.358;5.628;2023-05-07T09:11:46;3.80;3.80;3.00
46302;PMS7003;32029;51.358;5.628;2023-05-07T09:14:14;5.60;3.80;2.00
46302;PMS7003;32029;51.358;5.628;2023-05-07T09:16:41;5.20;4.20;3.20
46302;PMS7003;32029;51.358;5.628;2023-05-07T09:19:09;5.00;3.00;2.20
46302;PMS7003;32029;51.358;5.628;2023-05-07T09:21:36;4.00;3.00;2.33
46302;PMS7003;32029;51.358;5.628;2023-05-07T09:24:04;5.20;5.00;4.00
46302;PMS7003;32029;51.358;5.628;2023-05-07T09:26:32;6.00;4.00;3.00
46302;PMS7003;32029;51.358;5.628;2023-05-07T09:29:01;5.60;4.00;3.40
46302;PMS7003;32029;51.358;5.628;2023-05-07T09:31:29;6.00;3.80;3.00
46302;PMS7003;32029;51.358;5.628;2023-05-07T09:33:55;3.00;3.00;2.33
46302;PMS7003;32029;51.358;5.628;2023-05-07T09:36:24;4.20;4.20;2.80
46302;PMS7003;32029;51.358;5.628;2023-05-07T09:38:54;4.80;3.60;3.00
46302;PMS7003;32029;51.358;5.628;2023-05-07T09:41:23;4.40;4.20;3.60
46302;PMS7003;32029;51.358;5.628;2023-05-07T09:43:54;7.40;4.00;2.40
46302;PMS7003;32029;51.358;5.628;2023-05-07T09:46:25;4.20;3.60;2.60
46302;PMS7003;32029;51.358;5.628;2023-05-07T09:48:56;4.80;2.80;2.00
46302;PMS7003;32029;51.358;5.628;2023-05-07T09:51:29;6.20;5.00;3.00
46302;PMS7003;32029;51.358;5.628;2023-05-07T09:54:07;3.00;3.00;2.60
46302;PMS7003;32029;51.358;5.628;2023-05-07T09:56:35;3.00;3.00;2.00
46302;PMS7003;32029;51.358;5.628;2023-05-07T09:59:05;7.40;5.60;4.60
46302;PMS7003;32029;51.358;5.628;2023-05-07T10:01:35;3.00;3.00;2.40
46302;PMS7003;32029;51.358;5.628;2023-05-07T10:04:03;7.40;4.40;2.60
46302;PMS7003;32029;51.358;5.628;2023-05-07T10:06:32;5.20;4.20;2.60
46302;PMS7003;32029;51.358;5.628;2023-05-07T10:09:01;4.80;4.20;3.20
46302;PMS7003;32029;51.358;5.628;2023-05-07T10:11:29;6.00;4.80;3.80
46302;PMS7003;32029;51.358;5.628;2023-05-07T10:14:00;5.40;5.00;3.60
46302;PMS7003;32029;51.358;5.628;2023-05-07T10:16:33;5.80;4.20;3.00
46302;PMS7003;32029;51.358;5.628;2023-05-07T10:19:03;2.80;2.60;2.00
46302;PMS7003;32029;51.358;5.628;2023-05-07T10:21:47;5.40;4.40;3.40
46302;PMS7003;32029;51.358;5.628;2023-05-07T10:24:22;4.20;3.40;2.60
46302;PMS7003;32029;51.358;5.628;2023-05-07T10:26:53;4.80;3.40;2.60
46302;PMS7003;32029;51.358;5.628;2023-05-07T10:31:55;4.40;2.80;1.80
46302;PMS7003;32029;51.358;5.628;2023-05-07T10:34:32;2.80;2.60;2.40
46302;PMS7003;32029;51.358;5.628;2023-05-07T10:37:06;5.60;4.60;3.40
46302;PMS7003;32029;51.358;5.628;2023-05-07T10:39:35;5.60;3.00;2.60
46302;PMS7003;32029;51.358;5.628;2023-05-07T10:42:13;4.40;2.20;2.20
46302;PMS7003;32029;51.358;5.628;2023-05-07T10:44:41;1.20;0.40;0.40
46302;PMS7003;32029;51.358;5.628;2023-05-07T10:47:10;4.20;2.00;1.00
46302;PMS7003;32029;51.358;5.628;2023-05-07T10:52:23;3.60;2.00;1.40
46302;PMS7003;32029;51.358;5.628;2023-05-07T10:55:39;4.00;3.20;2.20
46302;PMS7003;32029;51.358;5.628;2023-05-07T10:57:48;2.60;1.80;1.60
46302;PMS7003;32029;51.358;5.628;2023-05-07T11:05:31;4.20;4.00;2.80
46302;PMS7003;32029;51.358;5.628;2023-05-07T11:08:03;3.40;1.40;1.20
46302;PMS7003;32029;51.358;5.628;2023-05-07T11:13:17;4.00;3.00;2.00
46302;PMS7003;32029;51.358;5.628;2023-05-07T11:15:47;4.60;3.20;1.80
46302;PMS7003;32029;51.358;5.628;2023-05-07T11:18:16;6.40;4.20;2.80
46302;PMS7003;32029;51.358;5.628;2023-05-07T11:20:46;0.20;0.00;0.00
46302;PMS7003;32029;51.358;5.628;2023-05-07T11:26:04;3.80;2.60;2.00
46302;PMS7003;32029;51.358;5.628;2023-05-07T11:28:37;5.00;2.20;1.80
46302;PMS7003;32029;51.358;5.628;2023-05-07T11:31:06;2.80;2.80;2.20
46302;PMS7003;32029;51.358;5.628;2023-05-07T11:33:35;3.20;2.80;2.00
46302;PMS7003;32029;51.358;5.628;2023-05-07T11:36:04;3.00;2.00;1.80
46302;PMS7003;32029;51.358;5.628;2023-05-07T11:38:36;2.00;2.00;1.40
46302;PMS7003;32029;51.358;5.628;2023-05-07T11:41:06;2.60;2.40;2.00
46302;PMS7003;32029;51.358;5.628;2023-05-07T11:43:35;2.20;1.60;1.40
46302;PMS7003;32029;51.358;5.628;2023-05-07T11:46:08;2.00;2.00;1.80
46302;PMS7003;32029;51.358;5.628;2023-05-07T11:48:36;0.00;0.00;0.00
46302;PMS7003;32029;51.358;5.628;2023-05-07T11:51:05;3.60;2.40;1.40
46302;PMS7003;32029;51.358;5.628;2023-05-07T11:53:39;2.20;2.20;2.00
46302;PMS7003;32029;51.358;5.628;2023-05-07T11:56:14;0.00;0.00;0.00
46302;PMS7003;32029;51.358;5.628;2023-05-07T11:58:45;1.00;1.00;0.20
46302;PMS7003;32029;51.358;5.628;2023-05-07T12:01:13;1.33;1.33;1.00
46302;PMS7003;32029;51.358;5.628;2023-05-07T12:03:41;2.00;1.00;1.00
46302;PMS7003;32029;51.358;5.628;2023-05-07T12:06:10;3.80;2.40;1.80
46302;PMS7003;32029;51.358;5.628;2023-05-07T12:08:40;2.60;1.80;1.00
46302;PMS7003;32029;51.358;5.628;2023-05-07T12:11:30;3.40;2.60;2.00
46302;PMS7003;32029;51.358;5.628;2023-05-07T12:13:56;4.80;2.20;1.80
46302;PMS7003;32029;51.358;5.628;2023-05-07T12:16:24;2.00;2.00;1.00
46302;PMS7003;32029;51.358;5.628;2023-05-07T12:18:52;3.20;2.00;1.40
46302;PMS7003;32029;51.358;5.628;2023-05-07T12:21:22;2.00;1.60;0.80
46302;PMS7003;32029;51.358;5.628;2023-05-07T12:23:50;2.80;1.80;1.00
46302;PMS7003;32029;51.358;5.628;2023-05-07T12:26:19;2.60;1.40;1.00
46302;PMS7003;32029;51.358;5.628;2023-05-07T12:28:47;4.33;2.00;1.00
46302;PMS7003;32029;51.358;5.628;2023-05-07T12:31:14;2.20;0.20;0.20
46302;PMS7003;32029;51.358;5.628;2023-05-07T12:33:42;0.00;0.00;0.00
46302;PMS7003;32029;51.358;5.628;2023-05-07T12:36:11;0.00;0.00;0.00
46302;PMS7003;32029;51.358;5.628;2023-05-07T12:38:40;0.00;0.00;0.00
46302;PMS7003;32029;51.358;5.628;2023-05-07T12:41:10;0.00;0.00;0.00
46302;PMS7003;32029;51.358;5.628;2023-05-07T12:43:38;0.00;0.00;0.00
46302;PMS7003;32029;51.358;5.628;2023-05-07T12:46:06;1.00;0.00;0.00
46302;PMS7003;32029;51.358;5.628;2023-05-07T12:48:35;1.00;0.00;0.00
46302;PMS7003;32029;51.358;5.628;2023-05-07T12:51:03;0.00;0.00;0.00
46302;PMS7003;32029;51.358;5.628;2023-05-07T12:53:32;0.00;0.00;0.00
46302;PMS7003;32029;51.358;5.628;2023-05-07T12:55:59;0.00;0.00;0.00
46302;PMS7003;32029;51.358;5.628;2023-05-07T13:00:54;0.00;0.00;0.00
46302;PMS7003;32029;51.358;5.628;2023-05-07T13:03:26;0.00;0.00;0.00
46302;PMS7003;32029;51.358;5.628;2023-05-07T13:05:53;0.00;0.00;0.00
46302;PMS7003;32029;51.358;5.628;2023-05-07T13:08:25;0.00;0.00;0.00
46302;PMS7003;32029;51.358;5.628;2023-05-07T13:10:51;0.00;0.00;0.00
46302;PMS7003;32029;51.358;5.628;2023-05-07T13:13:19;0.00;0.00;0.00
46302;PMS7003;32029;51.358;5.628;2023-05-07T13:15:47;0.00;0.00;0.00
46302;PMS7003;32029;51.358;5.628;2023-05-07T13:18:13;1.00;0.00;0.00
46302;PMS7003;32029;51.358;5.628;2023-05-07T13:20:40;0.33;0.33;0.00
46302;PMS7003;32029;51.358;5.628;2023-05-07T13:23:07;0.00;0.00;0.00
46302;PMS7003;32029;51.358;5.628;2023-05-07T13:25:33;0.00;0.00;0.00
46302;PMS7003;32029;51.358;5.628;2023-05-07T13:28:00;0.33;0.33;0.33
46302;PMS7003;32029;51.358;5.628;2023-05-07T13:30:27;0.00;0.00;0.00
46302;PMS7003;32029;51.358;5.628;2023-05-07T13:32:54;0.33;0.33;0.33
46302;PMS7003;32029;51.358;5.628;2023-05-07T13:35:21;2.00;0.00;0.00
46302;PMS7003;32029;51.358;5.628;2023-05-07T13:37:48;1.67;0.67;0.33
46302;PMS7003;32029;51.358;5.628;2023-05-07T13:40:15;0.33;0.33;0.00
46302;PMS7003;32029;51.358;5.628;2023-05-07T13:42:42;0.00;0.00;0.00
46302;PMS7003;32029;51.358;5.628;2023-05-07T13:45:09;0.00;0.00;0.00
46302;PMS7003;32029;51.358;5.628;2023-05-07T13:47:35;0.67;0.67;0.67
46302;PMS7003;32029;51.358;5.628;2023-05-07T13:50:02;1.33;0.33;0.00
46302;PMS7003;32029;51.358;5.628;2023-05-07T13:52:29;0.00;0.00;0.00
46302;PMS7003;32029;51.358;5.628;2023-05-07T13:54:59;0.67;0.67;0.67
46302;PMS7003;32029;51.358;5.628;2023-05-07T13:57:25;0.67;0.67;0.33
46302;PMS7003;32029;51.358;5.628;2023-05-07T13:59:52;2.00;0.67;0.00
46302;PMS7003;32029;51.358;5.628;2023-05-07T14:02:19;0.00;0.00;0.00
46302;PMS7003;32029;51.358;5.628;2023-05-07T14:04:46;1.00;1.00;0.67
46302;PMS7003;32029;51.358;5.628;2023-05-07T14:07:13;1.00;1.00;0.80
46302;PMS7003;32029;51.358;5.628;2023-05-07T14:09:41;0.00;0.00;0.00
46302;PMS7003;32029;51.358;5.628;2023-05-07T14:12:07;1.00;1.00;1.00
46302;PMS7003;32029;51.358;5.628;2023-05-07T14:14:34;0.33;0.33;0.33
46302;PMS7003;32029;51.358;5.628;2023-05-07T14:17:01;0.67;0.67;0.00
46302;PMS7003;32029;51.358;5.628;2023-05-07T14:19:27;0.00;0.00;0.00
46302;PMS7003;32029;51.358;5.628;2023-05-07T14:21:54;1.33;0.33;0.33
46302;PMS7003;32029;51.358;5.628;2023-05-07T14:24:21;1.33;1.33;0.00
46302;PMS7003;32029;51.358;5.628;2023-05-07T14:26:49;0.00;0.00;0.00
46302;PMS7003;32029;51.358;5.628;2023-05-07T14:29:17;1.80;0.80;0.20
46302;PMS7003;32029;51.358;5.628;2023-05-07T14:31:45;0.33;0.00;0.00
46302;PMS7003;32029;51.358;5.628;2023-05-07T14:34:12;0.00;0.00;0.00
46302;PMS7003;32029;51.358;5.628;2023-05-07T14:36:38;0.00;0.00;0.00
46302;PMS7003;32029;51.358;5.628;2023-05-07T14:39:05;2.00;1.33;1.00
46302;PMS7003;32029;51.358;5.628;2023-05-07T14:41:33;0.40;0.00;0.00
46302;PMS7003;32029;51.358;5.628;2023-05-07T14:44:02;2.00;1.40;0.40